createdAt,value
2023-03-26T00:01:33.655Z,1.05
2023-03-26T00:03:37.366Z,1.23
2023-03-26T00:05:40.435Z,1.30
2023-03-26T00:07:42.481Z,1.42
2023-03-26T00:09:44.283Z,1.17
2023-03-26T00:11:49.061Z,1.17
2023-03-26T00:13:53.586Z,1.42
2023-03-26T00:15:55.623Z,1.25
2023-03-26T00:17:57.510Z,1.05
2023-03-26T00:19:59.704Z,1.87
2023-03-26T00:22:03.547Z,1.20
2023-03-26T00:24:09.485Z,1.40
2023-03-26T00:26:11.378Z,1.23
2023-03-26T00:28:13.488Z,1.60
2023-03-26T00:30:16.590Z,1.45
2023-03-26T00:32:18.337Z,1.45
2023-03-26T00:34:20.777Z,2.00
2023-03-26T00:36:25.543Z,1.50
2023-03-26T00:38:29.010Z,1.25
2023-03-26T00:40:32.106Z,1.40
2023-03-26T00:42:34.596Z,1.40
2023-03-26T00:44:36.327Z,1.40
2023-03-26T00:46:38.275Z,1.58
2023-03-26T00:48:45.549Z,1.42
2023-03-26T00:50:49.083Z,1.25
2023-03-26T00:52:51.954Z,1.60
2023-03-26T00:54:54.614Z,1.40
2023-03-26T00:56:59.839Z,1.30
2023-03-26T00:59:01.903Z,1.55
2023-03-26T01:01:07.184Z,2.00
2023-03-26T01:03:26.670Z,1.60
2023-03-26T01:05:35.512Z,1.42
2023-03-26T01:07:37.428Z,1.40
2023-03-26T01:09:45.815Z,1.63
2023-03-26T01:11:48.874Z,1.50
2023-03-26T01:14:21.397Z,1.90
2023-03-26T01:16:28.500Z,1.50
2023-03-26T01:18:41.038Z,1.75
2023-03-26T01:20:46.837Z,1.63
2023-03-26T01:22:53.271Z,1.83
2023-03-26T01:24:56.608Z,1.35
2023-03-26T01:27:40.937Z,1.67
2023-03-26T01:29:45.642Z,1.50
2023-03-26T01:32:03.604Z,1.77
2023-03-26T01:34:33.783Z,1.50
2023-03-26T01:36:50.139Z,1.35
2023-03-26T01:39:30.847Z,1.80
2023-03-26T01:41:43.387Z,1.55
2023-03-26T01:44:07.857Z,1.95
2023-03-26T01:46:11.449Z,1.80
2023-03-26T01:48:13.906Z,1.60
2023-03-26T01:50:15.997Z,1.55
2023-03-26T01:52:25.239Z,1.52
2023-03-26T01:54:30.288Z,1.60
2023-03-26T01:56:39.637Z,1.80
2023-03-26T01:58:56.805Z,1.88
2023-03-26T02:01:04.379Z,1.40
2023-03-26T02:03:26.500Z,2.15
2023-03-26T02:05:39.817Z,2.17
2023-03-26T02:07:44.930Z,1.50
2023-03-26T02:09:52.695Z,1.52
2023-03-26T02:11:55.596Z,2.05
2023-03-26T02:13:58.451Z,2.10
2023-03-26T02:16:02.270Z,1.85
2023-03-26T02:18:04.394Z,2.03
2023-03-26T02:20:12.408Z,1.60
2023-03-26T02:22:17.086Z,1.95
2023-03-26T02:24:19.795Z,1.63
2023-03-26T02:28:23.192Z,1.70
2023-03-26T02:30:26.007Z,1.33
2023-03-26T02:34:31.541Z,1.65
2023-03-26T02:36:33.342Z,1.65
2023-03-26T02:38:35.372Z,1.90
2023-03-26T02:40:37.113Z,1.90
2023-03-26T02:42:39.163Z,1.90
2023-03-26T02:44:40.944Z,1.60
2023-03-26T02:46:42.745Z,1.98
2023-03-26T02:48:44.558Z,1.47
2023-03-26T02:50:50.032Z,1.60
2023-03-26T02:52:51.812Z,1.48
2023-03-26T02:54:53.643Z,1.50
2023-03-26T02:56:55.726Z,1.52
2023-03-26T02:58:57.505Z,1.90
2023-03-26T03:00:59.323Z,1.57
2023-03-26T03:03:04.872Z,1.80
2023-03-26T03:05:08.075Z,1.70
2023-03-26T03:07:14.370Z,2.03
2023-03-26T03:09:16.119Z,2.33
2023-03-26T03:11:23.476Z,2.13
2023-03-26T03:13:25.398Z,1.65
2023-03-26T03:15:28.216Z,1.92
2023-03-26T03:17:30.212Z,1.63
2023-03-26T03:19:31.956Z,1.50
2023-03-26T03:21:33.678Z,2.15
2023-03-26T03:23:35.636Z,2.30
2023-03-26T03:25:38.329Z,1.63
2023-03-26T03:29:44.912Z,1.90
2023-03-26T03:31:46.642Z,2.17
2023-03-26T03:33:48.702Z,1.75
2023-03-26T03:35:50.997Z,1.50
2023-03-26T03:37:52.982Z,1.50
2023-03-26T03:39:54.698Z,2.03
2023-03-26T03:41:56.518Z,2.00
2023-03-26T03:43:59.857Z,2.07
2023-03-26T03:46:02.213Z,2.00
2023-03-26T03:48:04.389Z,2.22
2023-03-26T03:50:07.185Z,1.98
2023-03-26T03:54:10.693Z,2.63
2023-03-26T03:56:14.594Z,3.00
2023-03-26T03:58:21.747Z,3.72
2023-03-26T04:00:24.309Z,3.85
2023-03-26T04:02:30.301Z,3.85
2023-03-26T04:04:32.867Z,5.07
2023-03-26T04:06:34.790Z,3.65
2023-03-26T04:08:36.802Z,2.93
2023-03-26T04:10:38.549Z,3.75
2023-03-26T04:12:40.528Z,3.00
2023-03-26T04:14:42.818Z,3.60
2023-03-26T04:16:44.588Z,2.65
2023-03-26T04:18:46.600Z,2.80
2023-03-26T04:20:49.276Z,2.15
2023-03-26T04:22:51.076Z,1.98
2023-03-26T04:24:54.456Z,2.40
2023-03-26T04:27:00.974Z,1.73
2023-03-26T04:29:06.014Z,1.83
2023-03-26T04:31:11.873Z,1.50
2023-03-26T04:33:15.464Z,2.03
2023-03-26T04:35:18.294Z,1.77
2023-03-26T04:37:27.509Z,2.60
2023-03-26T04:39:29.448Z,2.00
2023-03-26T04:41:32.470Z,2.15
2023-03-26T04:43:37.032Z,1.92
2023-03-26T04:45:39.564Z,2.35
2023-03-26T04:47:41.811Z,2.10
2023-03-26T04:49:44.614Z,2.20
2023-03-26T04:53:58.308Z,3.20
2023-03-26T04:56:30.023Z,4.15
2023-03-26T04:58:34.079Z,2.92
2023-03-26T05:00:35.874Z,3.40
2023-03-26T05:02:39.967Z,2.33
2023-03-26T05:04:43.740Z,1.80
2023-03-26T05:06:45.693Z,1.50
2023-03-26T05:08:47.705Z,1.95
2023-03-26T05:10:49.491Z,1.92
2023-03-26T05:12:51.293Z,1.67
2023-03-26T05:14:53.107Z,1.70
2023-03-26T05:16:55.024Z,1.90
2023-03-26T05:18:56.787Z,1.90
2023-03-26T05:20:58.541Z,1.45
2023-03-26T05:23:00.367Z,1.77
2023-03-26T05:25:03.164Z,1.77
2023-03-26T05:27:05.130Z,2.08
2023-03-26T05:29:06.897Z,1.60
2023-03-26T05:31:08.808Z,1.73
2023-03-26T05:33:10.793Z,2.03
2023-03-26T05:35:12.996Z,1.70
2023-03-26T05:37:14.709Z,1.92
2023-03-26T05:39:16.519Z,2.47
2023-03-26T05:41:18.674Z,1.70
2023-03-26T05:43:20.520Z,1.95
2023-03-26T05:45:22.406Z,2.20
2023-03-26T05:47:24.242Z,1.70
2023-03-26T05:49:26.094Z,1.80
2023-03-26T05:51:27.907Z,1.90
2023-03-26T05:56:53.751Z,2.45
2023-03-26T05:58:56.630Z,1.85
2023-03-26T06:00:59.973Z,2.00
2023-03-26T06:03:01.924Z,2.35
2023-03-26T06:05:05.264Z,1.98
2023-03-26T06:07:10.082Z,1.70
2023-03-26T06:09:14.787Z,2.33
2023-03-26T06:11:18.019Z,2.03
2023-03-26T06:13:19.888Z,2.28
2023-03-26T06:15:21.837Z,1.70
2023-03-26T06:17:23.665Z,1.90
2023-03-26T06:19:25.750Z,2.47
2023-03-26T06:21:28.516Z,2.40
2023-03-26T06:23:31.090Z,2.47
2023-03-26T06:25:33.478Z,2.45
2023-03-26T06:27:35.199Z,2.15
2023-03-26T06:29:37.007Z,2.60
2023-03-26T06:31:38.751Z,2.37
2023-03-26T06:33:40.517Z,1.70
2023-03-26T06:35:44.120Z,2.00
2023-03-26T06:37:46.624Z,1.90
2023-03-26T06:39:48.386Z,2.08
2023-03-26T06:41:50.331Z,2.28
2023-03-26T06:43:52.864Z,1.83
2023-03-26T06:45:54.678Z,1.70
2023-03-26T06:47:56.479Z,1.80
2023-03-26T06:49:58.234Z,1.98
2023-03-26T06:52:02.885Z,1.52
2023-03-26T06:54:05.092Z,1.67
2023-03-26T06:56:09.159Z,1.80
2023-03-26T06:58:14.112Z,1.45
2023-03-26T07:00:16.353Z,2.00
2023-03-26T07:02:18.106Z,2.10
2023-03-26T07:04:19.907Z,2.03
2023-03-26T07:06:21.839Z,1.67
2023-03-26T07:08:25.190Z,1.90
2023-03-26T07:10:28.143Z,1.52
2023-03-26T07:12:29.882Z,2.25
2023-03-26T07:14:32.691Z,2.13
2023-03-26T07:18:36.487Z,2.13
2023-03-26T07:20:38.653Z,2.05
2023-03-26T07:22:40.902Z,2.33
2023-03-26T07:24:43.037Z,1.80
2023-03-26T07:26:57.190Z,1.40
2023-03-26T07:29:20.757Z,1.60
2023-03-26T07:31:38.533Z,1.73
2023-03-26T07:34:06.819Z,1.95
2023-03-26T07:36:20.702Z,1.42
2023-03-26T07:38:51.734Z,2.00
2023-03-26T07:40:59.056Z,2.17
2023-03-26T07:43:11.662Z,2.08
2023-03-26T07:45:19.415Z,1.95
2023-03-26T07:47:29.440Z,1.92
2023-03-26T07:49:31.530Z,2.15
2023-03-26T07:51:33.731Z,1.80
2023-03-26T07:53:35.776Z,2.55
2023-03-26T07:56:00.452Z,2.45
2023-03-26T07:58:11.989Z,2.00
2023-03-26T08:00:19.751Z,2.10
2023-03-26T08:02:46.618Z,1.90
2023-03-26T08:05:01.203Z,1.92
2023-03-26T08:07:10.534Z,2.53
2023-03-26T08:09:34.918Z,2.30
2023-03-26T08:11:58.729Z,2.25
2023-03-26T08:14:24.561Z,2.03
2023-03-26T08:16:53.116Z,1.85
2023-03-26T08:19:03.867Z,2.25
2023-03-26T08:21:14.084Z,2.10
2023-03-26T08:23:28.105Z,2.30
2023-03-26T08:25:36.020Z,2.85
2023-03-26T08:28:05.525Z,2.45
2023-03-26T08:30:16.114Z,2.35
2023-03-26T08:32:20.210Z,2.10
2023-03-26T08:34:22.015Z,2.17
2023-03-26T08:36:23.791Z,2.97
2023-03-26T08:38:25.548Z,2.42
2023-03-26T08:40:58.261Z,2.90
2023-03-26T08:43:18.766Z,2.10
2023-03-26T08:45:26.959Z,2.35
2023-03-26T08:47:55.665Z,1.98
2023-03-26T08:50:18.635Z,1.88
2023-03-26T08:52:49.885Z,2.10
2023-03-26T08:54:56.185Z,2.30
2023-03-26T08:57:35.005Z,1.90
2023-03-26T08:59:58.850Z,2.40
2023-03-26T09:02:20.732Z,1.90
2023-03-26T09:04:54.034Z,1.98
2023-03-26T09:07:29.127Z,1.95
2023-03-26T09:09:48.182Z,1.85
2023-03-26T09:12:28.281Z,2.47
2023-03-26T09:15:17.961Z,2.13
2023-03-26T09:17:44.635Z,2.05
2023-03-26T09:20:08.947Z,1.63
2023-03-26T09:22:30.422Z,1.65
2023-03-26T09:25:06.392Z,1.98
2023-03-26T09:27:37.642Z,2.10
2023-03-26T09:30:17.019Z,1.98
2023-03-26T09:32:43.238Z,2.10
2023-03-26T09:35:13.537Z,2.20
2023-03-26T09:37:58.485Z,1.60
2023-03-26T09:40:20.321Z,1.80
2023-03-26T09:42:29.855Z,1.60
2023-03-26T09:44:56.878Z,2.05
2023-03-26T09:47:24.757Z,2.22
2023-03-26T09:49:32.671Z,2.03
2023-03-26T09:51:40.337Z,2.30
2023-03-26T09:54:39.345Z,2.28
2023-03-26T09:56:58.577Z,2.55
2023-03-26T09:59:16.813Z,2.45
2023-03-26T10:01:45.543Z,2.58
2023-03-26T10:03:53.412Z,2.65
2023-03-26T10:06:21.254Z,2.67
2023-03-26T10:08:32.380Z,2.78
2023-03-26T10:10:46.276Z,2.42
2023-03-26T10:13:13.890Z,2.60
2023-03-26T10:15:28.995Z,2.50
2023-03-26T10:17:34.002Z,2.20
2023-03-26T10:19:46.397Z,2.67
2023-03-26T10:22:09.686Z,2.20
2023-03-26T10:26:21.829Z,2.00
2023-03-26T10:28:44.358Z,2.10
2023-03-26T10:31:01.620Z,2.05
2023-03-26T10:34:00.323Z,2.25
2023-03-26T10:36:36.678Z,2.53
2023-03-26T10:38:58.188Z,2.20
2023-03-26T10:41:05.994Z,2.05
2023-03-26T10:43:38.772Z,2.03
2023-03-26T10:45:55.538Z,2.30
2023-03-26T10:48:33.460Z,2.15
2023-03-26T10:50:44.373Z,2.40
2023-03-26T10:52:57.270Z,2.35
2023-03-26T10:55:12.077Z,2.20
2023-03-26T10:57:38.127Z,1.60
2023-03-26T10:59:40.139Z,1.63
2023-03-26T11:01:57.927Z,2.00
2023-03-26T11:04:33.501Z,1.77
2023-03-26T11:06:55.320Z,1.80
2023-03-26T11:09:03.800Z,1.55
2023-03-26T11:11:15.419Z,1.42
2023-03-26T11:13:54.060Z,1.60
2023-03-26T11:16:18.514Z,1.50
2023-03-26T11:18:33.825Z,1.67
2023-03-26T11:20:39.642Z,1.63
2023-03-26T11:23:00.680Z,1.50
2023-03-26T11:25:29.968Z,1.60
2023-03-26T11:28:00.117Z,1.70
2023-03-26T11:30:18.693Z,1.65
2023-03-26T11:32:34.269Z,1.88
2023-03-26T11:35:05.750Z,1.63
2023-03-26T11:37:33.404Z,1.90
2023-03-26T11:39:55.889Z,1.73
2023-03-26T11:42:24.940Z,1.77
2023-03-26T11:44:37.962Z,1.95
2023-03-26T11:48:59.476Z,1.50
2023-03-26T11:51:10.709Z,1.63
2023-03-26T11:53:17.963Z,1.60
2023-03-26T11:55:20.096Z,1.20
2023-03-26T11:57:34.657Z,1.30
2023-03-26T11:59:56.996Z,1.30
2023-03-26T12:02:24.448Z,1.90
2023-03-26T12:04:33.842Z,1.38
2023-03-26T12:06:36.067Z,1.25
2023-03-26T12:08:43.263Z,1.55
2023-03-26T12:10:50.706Z,1.70
2023-03-26T12:12:55.966Z,1.50
2023-03-26T12:14:58.694Z,1.63
2023-03-26T12:19:21.160Z,1.98
2023-03-26T12:21:23.722Z,2.00
2023-03-26T12:23:56.017Z,2.30
2023-03-26T12:26:19.056Z,2.50
2023-03-26T12:28:21.415Z,2.03
2023-03-26T12:30:23.389Z,1.90
2023-03-26T12:32:32.547Z,2.35
2023-03-26T12:34:45.096Z,2.40
2023-03-26T12:37:00.954Z,1.70
2023-03-26T12:40:07.250Z,1.80
2023-03-26T12:44:43.667Z,1.85
2023-03-26T12:44:49.934Z,1.60
2023-03-26T12:47:57.494Z,1.70
2023-03-26T12:49:15.872Z,1.63
2023-03-26T12:51:34.067Z,1.60
2023-03-26T12:53:44.619Z,1.65
2023-03-26T12:56:12.411Z,1.50
2023-03-26T12:58:29.766Z,1.30
2023-03-26T13:00:46.441Z,1.40
2023-03-26T13:02:59.096Z,1.20
2023-03-26T13:05:22.719Z,1.55
2023-03-26T13:10:28.005Z,1.30
2023-03-26T13:12:41.895Z,1.25
2023-03-26T13:15:07.913Z,1.40
2023-03-26T13:17:22.439Z,1.33
2023-03-26T13:19:32.588Z,1.42
2023-03-26T13:21:53.641Z,1.23
2023-03-26T13:24:18.109Z,1.10
2023-03-26T13:26:28.097Z,1.10
2023-03-26T13:28:38.342Z,1.20
2023-03-26T13:31:04.356Z,1.17
2023-03-26T13:33:40.953Z,0.90
2023-03-26T13:35:42.749Z,1.00
2023-03-26T13:38:06.300Z,1.03
2023-03-26T13:40:26.373Z,1.35
2023-03-26T13:42:57.748Z,1.23
2023-03-26T13:45:17.370Z,1.20
2023-03-26T13:47:24.099Z,1.05
2023-03-26T13:49:37.259Z,1.00
2023-03-26T13:51:53.094Z,1.30
2023-03-26T13:53:58.895Z,1.63
2023-03-26T13:56:01.158Z,1.27
2023-03-26T13:58:34.708Z,1.40
2023-03-26T14:00:54.459Z,1.58
2023-03-26T14:03:03.632Z,1.35
2023-03-26T14:05:42.236Z,1.25
2023-03-26T14:07:52.476Z,1.67
2023-03-26T14:09:59.977Z,1.30
2023-03-26T14:12:27.339Z,0.95
2023-03-26T14:14:48.547Z,1.33
2023-03-26T14:16:57.920Z,1.27
2023-03-26T14:19:13.792Z,1.13
2023-03-26T14:21:34.242Z,1.20
2023-03-26T14:24:09.582Z,1.40
2023-03-26T14:26:33.204Z,1.20
2023-03-26T14:28:38.311Z,1.23
2023-03-26T14:30:56.428Z,1.00
2023-03-26T14:33:17.806Z,1.23
2023-03-26T14:36:01.533Z,1.08
2023-03-26T14:38:24.868Z,1.45
2023-03-26T14:40:49.855Z,0.85
2023-03-26T14:43:10.056Z,1.08
2023-03-26T14:45:23.973Z,1.52
2023-03-26T14:47:26.307Z,1.10
2023-03-26T14:50:06.670Z,1.20
2023-03-26T14:52:34.758Z,1.50
2023-03-26T14:54:44.002Z,1.20
2023-03-26T14:57:06.851Z,1.30
2023-03-26T14:59:17.685Z,1.10
2023-03-26T15:01:27.925Z,1.25
2023-03-26T15:04:07.136Z,1.10
2023-03-26T15:06:46.620Z,1.20
2023-03-26T15:09:03.419Z,1.40
2023-03-26T15:11:24.330Z,1.02
2023-03-26T15:13:35.034Z,1.30
2023-03-26T15:16:19.919Z,1.30
2023-03-26T15:19:17.796Z,1.20
2023-03-26T15:21:25.107Z,1.33
2023-03-26T15:24:05.864Z,1.40
2023-03-26T15:26:41.408Z,1.20
2023-03-26T15:28:43.114Z,1.48
2023-03-26T15:31:26.441Z,1.25
2023-03-26T15:33:59.342Z,1.55
2023-03-26T15:36:39.201Z,1.50
2023-03-26T15:38:59.635Z,1.67
2023-03-26T15:41:39.605Z,1.63
2023-03-26T15:44:24.058Z,1.90
2023-03-26T15:46:55.989Z,1.77
2023-03-26T15:49:07.103Z,1.77
2023-03-26T15:51:31.486Z,1.98
2023-03-26T15:54:08.518Z,1.98
2023-03-26T15:56:16.178Z,1.98
2023-03-26T15:58:43.519Z,1.50
2023-03-26T16:01:37.474Z,1.20
2023-03-26T16:04:26.553Z,0.90
2023-03-26T16:06:30.933Z,1.00
2023-03-26T16:09:04.716Z,1.00
2023-03-26T16:13:17.569Z,0.93
2023-03-26T16:15:33.340Z,1.00
2023-03-26T16:18:06.360Z,1.00
2023-03-26T16:20:31.359Z,1.20
2023-03-26T16:23:19.173Z,0.82
2023-03-26T16:25:35.391Z,1.98
2023-03-26T16:27:37.325Z,1.02
2023-03-26T16:30:13.737Z,0.93
2023-03-26T16:32:36.394Z,1.23
2023-03-26T16:35:02.128Z,1.30
2023-03-26T16:37:08.036Z,1.30
2023-03-26T16:39:19.125Z,1.20
2023-03-26T16:41:26.155Z,1.02
2023-03-26T16:43:43.814Z,0.98
2023-03-26T16:46:16.620Z,1.15
2023-03-26T16:48:46.433Z,1.13
2023-03-26T16:51:15.070Z,1.02
2023-03-26T16:53:54.810Z,1.02
2023-03-26T16:56:14.959Z,1.02
2023-03-26T16:58:45.370Z,1.40
2023-03-26T17:00:49.380Z,1.70
2023-03-26T17:03:04.392Z,1.70
2023-03-26T17:05:41.178Z,1.42
2023-03-26T17:07:51.339Z,1.45
2023-03-26T17:10:31.964Z,1.60
2023-03-26T17:12:33.763Z,1.55
2023-03-26T17:15:06.002Z,1.60
2023-03-26T17:17:30.697Z,1.77
2023-03-26T17:19:57.188Z,1.30
2023-03-26T17:22:14.713Z,1.33
2023-03-26T17:24:35.082Z,1.85
2023-03-26T17:27:03.797Z,1.25
2023-03-26T17:29:09.315Z,1.20
2023-03-26T17:31:18.545Z,1.15
2023-03-26T17:33:23.659Z,1.30
2023-03-26T17:35:49.045Z,1.02
2023-03-26T17:37:51.133Z,1.10
2023-03-26T17:39:52.920Z,1.20
2023-03-26T17:42:18.384Z,1.20
2023-03-26T17:44:42.497Z,1.10
2023-03-26T17:46:48.309Z,1.27
2023-03-26T17:49:14.741Z,1.40
2023-03-26T17:51:38.877Z,1.25
2023-03-26T17:53:41.654Z,1.17
2023-03-26T17:57:51.569Z,1.20
2023-03-26T17:59:58.883Z,1.10
2023-03-26T18:02:05.441Z,1.20
2023-03-26T18:04:14.696Z,1.23
2023-03-26T18:06:41.134Z,0.95
2023-03-26T18:08:45.930Z,0.80
2023-03-26T18:10:53.679Z,1.02
2023-03-26T18:12:55.742Z,1.05
2023-03-26T18:15:28.058Z,0.90
2023-03-26T18:17:39.309Z,1.15
2023-03-26T18:19:55.710Z,0.88
2023-03-26T18:22:05.334Z,0.93
2023-03-26T18:24:13.409Z,0.75
2023-03-26T18:26:35.632Z,1.17
2023-03-26T18:28:44.976Z,1.00
2023-03-26T18:30:48.936Z,1.15
2023-03-26T18:33:00.177Z,0.90
2023-03-26T18:35:20.448Z,0.90
2023-03-26T18:37:23.928Z,1.13
2023-03-26T18:39:25.812Z,1.40
2023-03-26T18:41:33.108Z,1.20
2023-03-26T18:43:44.192Z,0.98
2023-03-26T18:45:50.527Z,0.93
2023-03-26T18:47:58.146Z,0.77
2023-03-26T18:50:00.680Z,0.90
2023-03-26T18:52:02.603Z,0.90
2023-03-26T18:54:06.723Z,0.98
2023-03-26T18:56:27.546Z,1.00
2023-03-26T18:58:34.954Z,1.20
2023-03-26T19:00:36.893Z,0.90
2023-03-26T19:02:39.095Z,0.77
2023-03-26T19:04:46.196Z,0.93
2023-03-26T19:06:53.845Z,1.20
2023-03-26T19:08:57.327Z,0.95
2023-03-26T19:11:04.370Z,1.15
2023-03-26T19:13:12.877Z,1.45
2023-03-26T19:15:17.048Z,0.75
2023-03-26T19:17:19.178Z,1.00
2023-03-26T19:19:23.587Z,0.90
2023-03-26T19:21:25.853Z,1.00
2023-03-26T19:23:35.109Z,1.20
2023-03-26T19:25:49.519Z,1.17
2023-03-26T19:27:52.565Z,1.00
2023-03-26T19:29:54.719Z,0.98
2023-03-26T19:32:03.737Z,1.00
2023-03-26T19:34:14.841Z,1.10
2023-03-26T19:36:21.750Z,1.08
2023-03-26T19:38:25.247Z,1.42
2023-03-26T19:40:30.367Z,1.00
2023-03-26T19:42:43.743Z,1.20
2023-03-26T19:44:46.820Z,1.00
2023-03-26T19:49:41.096Z,0.97
2023-03-26T19:51:18.355Z,1.10
2023-03-26T19:51:42.866Z,1.30
2023-03-26T19:53:46.899Z,1.20
2023-03-26T19:56:19.245Z,1.10
2023-03-26T19:58:21.429Z,1.20
2023-03-26T20:00:23.495Z,1.00
2023-03-26T20:02:26.754Z,1.00
2023-03-26T20:04:32.540Z,1.15
2023-03-26T20:06:43.271Z,1.20
2023-03-26T20:08:47.213Z,1.20
2023-03-26T20:10:49.158Z,1.10
2023-03-26T20:12:50.930Z,1.15
2023-03-26T20:14:52.713Z,1.13
2023-03-26T20:16:55.047Z,0.90
2023-03-26T20:18:58.428Z,1.20
2023-03-26T20:21:00.177Z,1.00
2023-03-26T20:23:02.295Z,1.05
2023-03-26T20:25:30.240Z,0.98
2023-03-26T20:27:33.072Z,1.02
2023-03-26T20:29:36.650Z,1.00
2023-03-26T20:31:39.765Z,1.02
2023-03-26T20:33:42.233Z,0.90
2023-03-26T20:35:44.838Z,0.93
2023-03-26T20:39:48.832Z,0.90
2023-03-26T20:41:52.458Z,1.00
2023-03-26T20:43:54.302Z,1.00
2023-03-26T20:45:58.466Z,0.97
2023-03-26T20:48:02.784Z,0.90
2023-03-26T20:50:05.454Z,0.95
2023-03-26T20:52:07.257Z,1.20
2023-03-26T20:54:25.140Z,0.98
2023-03-26T20:56:27.106Z,0.98
2023-03-26T20:58:31.237Z,1.10
2023-03-26T21:00:34.010Z,1.00
2023-03-26T21:02:35.895Z,1.10
2023-03-26T21:04:37.801Z,1.00
2023-03-26T21:06:39.592Z,1.07
2023-03-26T21:08:43.743Z,1.00
2023-03-26T21:10:47.024Z,1.00
2023-03-26T21:12:58.416Z,0.90
2023-03-26T21:15:03.298Z,1.05
2023-03-26T21:17:15.671Z,1.00
2023-03-26T21:19:17.965Z,0.88
2023-03-26T21:21:44.129Z,0.85
2023-03-26T21:23:59.167Z,0.85
2023-03-26T21:26:01.686Z,0.75
2023-03-26T21:28:46.583Z,1.13
2023-03-26T21:30:48.904Z,1.20
2023-03-26T21:32:51.367Z,0.85
2023-03-26T21:37:00.218Z,0.93
2023-03-26T21:39:03.229Z,1.00
2023-03-26T21:41:05.469Z,1.15
2023-03-26T21:43:07.577Z,1.20
2023-03-26T21:45:10.149Z,0.95
2023-03-26T21:47:12.442Z,1.00
2023-03-26T21:49:16.542Z,0.90
2023-03-26T21:51:18.966Z,1.13
2023-03-26T21:53:22.363Z,0.88
2023-03-26T21:55:25.188Z,1.15
2023-03-26T21:57:47.190Z,1.05
2023-03-26T21:59:54.679Z,1.10
2023-03-26T22:02:17.881Z,1.13
2023-03-26T22:06:37.846Z,0.90
2023-03-26T22:08:41.395Z,1.10
2023-03-26T22:10:43.311Z,0.93
2023-03-26T22:12:45.113Z,0.90
2023-03-26T22:14:47.454Z,1.23
2023-03-26T22:16:49.197Z,1.02
2023-03-26T22:18:52.461Z,1.00
2023-03-26T22:20:54.556Z,1.00
2023-03-26T22:22:56.701Z,1.02
2023-03-26T22:24:58.462Z,1.00
2023-03-26T22:27:00.858Z,1.00
2023-03-26T22:29:02.688Z,1.25
2023-03-26T22:31:08.953Z,1.10
2023-03-26T22:33:12.104Z,1.17
2023-03-26T22:35:14.415Z,1.13
2023-03-26T22:37:17.295Z,1.08
2023-03-26T22:39:19.023Z,0.80
2023-03-26T22:41:21.703Z,1.15
2023-03-26T22:45:26.023Z,0.98
2023-03-26T22:47:30.472Z,1.05
2023-03-26T22:49:32.339Z,1.00
2023-03-26T22:51:34.114Z,1.10
2023-03-26T22:53:36.521Z,1.37
2023-03-26T22:55:38.339Z,1.08
2023-03-26T22:57:41.344Z,1.57
2023-03-26T22:59:43.390Z,0.90
2023-03-26T23:01:45.485Z,1.20
2023-03-26T23:03:47.654Z,1.00
2023-03-26T23:06:01.805Z,1.00
2023-03-26T23:08:03.896Z,1.00
2023-03-26T23:10:06.867Z,0.90
2023-03-26T23:12:08.936Z,0.90
2023-03-26T23:14:10.698Z,1.15
2023-03-26T23:16:14.134Z,1.00
2023-03-26T23:18:17.449Z,1.10
2023-03-26T23:20:20.300Z,1.10
2023-03-26T23:22:22.193Z,1.10
2023-03-26T23:24:26.406Z,0.98
2023-03-26T23:26:35.002Z,1.15
2023-03-26T23:28:40.907Z,1.00
2023-03-26T23:30:47.625Z,1.02
2023-03-26T23:32:49.415Z,0.90
2023-03-26T23:34:52.032Z,1.17
2023-03-26T23:36:54.371Z,1.23
2023-03-26T23:38:56.502Z,1.20
2023-03-26T23:40:59.311Z,1.20
2023-03-26T23:43:01.065Z,1.00
2023-03-26T23:45:04.056Z,1.23
2023-03-26T23:47:10.374Z,0.80
2023-03-26T23:49:12.159Z,1.00
2023-03-26T23:51:14.673Z,1.10
2023-03-26T23:53:17.261Z,1.30
2023-03-26T23:57:20.600Z,1.00
2023-03-26T23:59:23.165Z,1.20
